This is the latest recevied weather packets stored in our database for station/object IZ1VWE-3. If no packets are shown the sender has not sent any weather packets the latest 1 day(s).
| Time | Temp. | Humidity | Pressure | Rain* | Wind** | Luminosity | Snow |
|---|---|---|---|---|---|---|---|
| 1778080248 | 21.67° C | 51% | 1006.7 hPa | - | - | - | - |
| 1778077848 | 20.56° C | 53% | 1006.6 hPa | - | - | - | - |
| 1778076647 | 20.56° C | 50% | 1006.7 hPa | - | - | - | - |
| 1778073046 | 21.67° C | 51% | 1006.9 hPa | - | - | - | - |
| 1778071846 | 22.22° C | 49% | 1006.9 hPa | - | - | - | - |
| 1778068245 | 22.22° C | 55% | 1006.4 hPa | - | - | - | - |
| 1778065844 | 20° C | 60% | 1006.4 hPa | - | - | - | - |
| 1778064644 | 21.11° C | 57% | 1006.5 hPa | - | - | - | - |
| 1778061043 | 21.11° C | 58% | 1006.5 hPa | - | - | - | - |
| 1778058642 | 18.89° C | 65% | 1004 hPa | - | - | - | - |
| 1778057442 | 19.44° C | 66% | 1001.2 hPa | - | - | - | - |
| 1778055041 | 20° C | 86% | 1009.2 hPa | - | - | - | - |
| 1778053841 | 25° C | 79% | 1008.9 hPa | - | - | - | - |
| 1778052641 | 13.33° C | 99% | 0 hPa | - | - | - | - |
| 1778050237 | 13.33° C | 99% | 1003.9 hPa | - | - | - | - |
| 1778049037 | 13.33° C | 99% | 1004.2 hPa | - | - | - | - |
| 1778046636 | 12.22° C | 99% | 1004.2 hPa | - | - | - | - |
| 1778045436 | 12.22° C | 99% | 1004.6 hPa | - | - | - | - |
| 1778043035 | 11.67° C | 99% | 1004.5 hPa | - | - | - | - |
| 1778041835 | 11.11° C | 99% | 1004.8 hPa | - | - | - | - |
| 1778040635 | 11.67° C | 99% | 1005.3 hPa | - | - | - | - |
| 1778039434 | 12.22° C | 88% | 1005.6 hPa | - | - | - | - |
| 1778038234 | 11.11° C | 88% | 1005.3 hPa | - | - | - | - |
| 1778037034 | 10° C | 83% | 1005.3 hPa | - | - | - | - |
| 1778034633 | 10.56° C | 86% | 1006.5 hPa | - | - | - | - |
* Rain since midnight (hover to see other rain measurements)
** Current wind speed in m/s (hover to see current wind gust speed)